»·PEaware :: CGHFO KROW-KELP

CGHFO :: KROW-KELP

FLIGHT INFORMATION

Flight Status: Arrived
Operator: Unknown
More flights by this operator :: More flights under this callsign
Pilot: Basie S. (26327)
Aircraft: BEECH AIRCRAFT DEBONAIR BONANZA
(BE33)
More flights by this aircraft type
Origin: KROW Roswell Industrial
United States
Destination: KELP El Paso Intl
United States
More flights between these airports :: More routes between these airports
Route: CME V280 ELP
File this flight plan on PilotEdge
Remarks:
Altitude:
(Current/Filed)
10,000ft
Speed:
(Current/Filed)
155kts
Departed: 09-Oct-19 12:36 PM
Arrived: 09-Oct-19 01:58 PM
Distance/Time
Traveled:
130nm/1:22
Distance/Time
To Go:
Arrived

Flight Plot

Page will automatically refresh every two minutes.


Map Options




Map Legend


Flown Route
Filed Route
Departure Airport
Arrival Airport
Navaid (VOR, NDB)
Fix

Horizontal Profiles

Position Reports

Time Latitude Longitude Heading Altitude Ground
Speed
09-Oct-19 12:09 33.305103 -104.525148 0 3673ft 0kts
09-Oct-19 12:10 33.305103 -104.525148 180 3673ft 0kts
09-Oct-19 12:11 33.305103 -104.525148 180 3673ft 0kts
09-Oct-19 12:12 33.305103 -104.525148 180 3673ft 0kts
09-Oct-19 12:13 33.305103 -104.525148 180 3673ft 0kts
09-Oct-19 12:14 33.305103 -104.525148 180 3673ft 0kts
09-Oct-19 12:15 33.305103 -104.525148 180 3673ft 0kts
09-Oct-19 12:16 33.305103 -104.525148 180 3673ft 0kts
09-Oct-19 12:17 33.305103 -104.525148 180 3673ft 0kts
09-Oct-19 12:18 33.305103 -104.525148 180 3673ft 0kts
09-Oct-19 12:19 33.305103 -104.525148 180 3673ft 0kts
09-Oct-19 12:20 33.305103 -104.525148 180 3673ft 0kts
09-Oct-19 12:21 33.305103 -104.525148 180 3673ft 0kts
09-Oct-19 12:22 33.305103 -104.525148 180 3673ft 0kts
09-Oct-19 12:23 33.305103 -104.525148 180 3673ft 0kts
09-Oct-19 12:24 33.305103 -104.525148 180 3673ft 0kts
09-Oct-19 12:25 33.304890 -104.524880 121 3673ft 3kts
09-Oct-19 12:26 33.304660 -104.523288 89 3673ft 3kts
09-Oct-19 12:27 33.304518 -104.519494 120 3673ft 22kts
09-Oct-19 12:28 33.300136 -104.524090 225 3674ft 21kts
09-Oct-19 12:29 33.295527 -104.529596 227 3673ft 27kts
09-Oct-19 12:30 33.290521 -104.535512 223 3674ft 20kts
09-Oct-19 12:31 33.287812 -104.537633 270 3674ft 9kts
09-Oct-19 12:32 33.287806 -104.538126 267 3674ft 0kts
09-Oct-19 12:33 33.287806 -104.538126 267 3674ft 0kts
09-Oct-19 12:34 33.288177 -104.539235 335 3674ft 11kts
09-Oct-19 12:35 33.308738 -104.538515 358 3982ft 93kts
09-Oct-19 12:36 33.332659 -104.545541 290 4543ft 115kts
09-Oct-19 12:37 33.338924 -104.586693 281 4992ft 128kts
09-Oct-19 12:38 33.344422 -104.629032 262 5489ft 132kts
09-Oct-19 12:39 33.312945 -104.652193 217 6011ft 134kts
09-Oct-19 12:40 33.284940 -104.679686 227 6509ft 126kts
09-Oct-19 12:41 33.258137 -104.705811 222 7010ft 122kts
09-Oct-19 12:42 33.233761 -104.731854 239 7509ft 113kts
09-Oct-19 12:43 33.213094 -104.759464 229 8008ft 109kts
09-Oct-19 12:45 33.191580 -104.783664 229 8506ft 102kts
09-Oct-19 12:46 33.171625 -104.805909 229 8996ft 94kts
09-Oct-19 12:47 33.153027 -104.826615 229 9481ft 90kts
09-Oct-19 12:48 33.133730 -104.848026 228 9802ft 99kts
09-Oct-19 12:49 33.111836 -104.872368 227 9942ft 120kts
09-Oct-19 12:50 33.085722 -104.901394 227 9952ft 133kts
09-Oct-19 12:51 33.058298 -104.931783 226 9974ft 135kts
09-Oct-19 12:52 33.030718 -104.962331 226 9999ft 135kts
09-Oct-19 12:53 33.003303 -104.992669 226 10022ft 133kts
09-Oct-19 12:54 32.976200 -105.022507 226 10044ft 132kts
09-Oct-19 12:55 32.949244 -105.052192 226 10063ft 131kts
09-Oct-19 12:56 32.922464 -105.081744 226 10059ft 131kts
09-Oct-19 12:57 32.895487 -105.111495 226 10051ft 131kts
09-Oct-19 12:58 32.868614 -105.141101 227 10026ft 132kts
09-Oct-19 12:59 32.841567 -105.170882 226 10004ft 132kts
09-Oct-19 13:00 32.814533 -105.200613 226 9986ft 132kts
09-Oct-19 13:01 32.787651 -105.230151 226 9979ft 131kts
09-Oct-19 13:02 32.760948 -105.259477 225 9991ft 130kts
09-Oct-19 13:03 32.734318 -105.288693 225 10004ft 130kts
09-Oct-19 13:04 32.707320 -105.317608 222 10016ft 131kts
09-Oct-19 13:05 32.679355 -105.345316 222 10028ft 131kts
09-Oct-19 13:06 32.651380 -105.373236 224 10031ft 132kts
09-Oct-19 13:06 32.626701 -105.396113 222 9978ft 135kts
09-Oct-19 13:07 32.597150 -105.423326 222 9981ft 134kts
09-Oct-19 13:09 32.562765 -105.454805 222 9978ft 134kts
09-Oct-19 13:09 32.537217 -105.475680 195 9969ft 142kts
09-Oct-19 13:10 32.496728 -105.470798 182 9978ft 147kts
09-Oct-19 13:11 32.455973 -105.465927 183 9978ft 147kts
09-Oct-19 13:13 32.408449 -105.460994 184 9978ft 147kts
09-Oct-19 13:13 32.374523 -105.457528 184 9979ft 147kts
09-Oct-19 13:14 32.333721 -105.453354 183 9979ft 147kts
09-Oct-19 13:15 32.292981 -105.449196 184 9977ft 147kts
09-Oct-19 13:16 32.252264 -105.445046 184 9979ft 147kts
09-Oct-19 13:17 32.211700 -105.440896 183 10006ft 145kts
09-Oct-19 13:18 32.171153 -105.436783 184 10006ft 146kts
09-Oct-19 13:19 32.130635 -105.432654 184 10007ft 146kts
09-Oct-19 13:20 32.090006 -105.428518 183 10010ft 146kts
09-Oct-19 13:21 32.049730 -105.424426 184 10012ft 144kts
09-Oct-19 13:22 32.009740 -105.420377 184 10013ft 144kts
09-Oct-19 13:23 31.970080 -105.416344 184 10014ft 143kts
09-Oct-19 13:24 31.930503 -105.412336 184 10014ft 143kts
09-Oct-19 13:25 31.890857 -105.408327 184 10016ft 143kts
09-Oct-19 13:26 31.851098 -105.404309 184 10017ft 143kts
09-Oct-19 13:27 31.811248 -105.400277 184 10017ft 144kts
09-Oct-19 13:28 31.771364 -105.396251 184 10020ft 144kts
09-Oct-19 13:29 31.731565 -105.392236 184 10022ft 143kts
09-Oct-19 13:30 31.691688 -105.388219 184 10026ft 143kts
09-Oct-19 13:31 31.651916 -105.384216 184 10027ft 144kts
09-Oct-19 13:32 31.612074 -105.380207 184 10026ft 144kts
09-Oct-19 13:33 31.584592 -105.396813 274 10022ft 130kts
09-Oct-19 13:34 31.595650 -105.437677 279 10024ft 131kts
09-Oct-19 13:35 31.605973 -105.479065 280 10024ft 132kts
09-Oct-19 13:36 31.616897 -105.520557 281 10024ft 133kts
09-Oct-19 13:37 31.627846 -105.561994 281 10024ft 133kts
09-Oct-19 13:38 31.638742 -105.603288 281 10024ft 132kts
09-Oct-19 13:39 31.649656 -105.644725 281 10025ft 132kts
09-Oct-19 13:40 31.660573 -105.686263 280 10029ft 134kts
09-Oct-19 13:41 31.671598 -105.728258 280 10028ft 134kts
09-Oct-19 13:42 31.682605 -105.770207 280 10030ft 134kts
09-Oct-19 13:43 31.693715 -105.812206 281 10028ft 134kts
09-Oct-19 13:44 31.705007 -105.855298 281 9794ft 146kts
09-Oct-19 13:45 31.717357 -105.902390 281 9310ft 152kts
09-Oct-19 13:46 31.729856 -105.950331 281 8819ft 154kts
09-Oct-19 13:47 31.742344 -105.997937 281 8316ft 149kts
09-Oct-19 13:48 31.754244 -106.044186 281 7822ft 148kts
09-Oct-19 13:49 31.766430 -106.091222 281 7327ft 152kts
09-Oct-19 13:50 31.778701 -106.138519 280 7018ft 143kts
09-Oct-19 13:51 31.789890 -106.181743 280 6950ft 139kts
09-Oct-19 13:52 31.801662 -106.227572 281 6529ft 149kts
09-Oct-19 13:53 31.799930 -106.269308 245 6518ft 130kts
09-Oct-19 13:54 31.797883 -106.307166 267 6095ft 95kts
09-Oct-19 13:55 31.800432 -106.333620 265 5092ft 77kts
09-Oct-19 13:56 31.800763 -106.358772 263 4061ft 81kts
09-Oct-19 13:57 31.801158 -106.369527 269 3962ft 7kts
09-Oct-19 13:58 31.799910 -106.370592 188 3962ft 3kts

Navigation Log

Ident Type
Flight plan parsing failed, navigation log unavailable